createdAt,value
2023-01-30T00:03:54.743Z,28.4
2023-01-30T00:10:00.756Z,28.3
2023-01-30T00:16:06.980Z,28.2
2023-01-30T00:22:13.090Z,28.4
2023-01-30T00:28:18.851Z,28.2
2023-01-30T00:34:24.845Z,28.4
2023-01-30T00:40:30.616Z,28.2
2023-01-30T00:46:36.810Z,28.2
2023-01-30T00:52:42.806Z,28.2
2023-01-30T00:58:48.240Z,28.2
2023-01-30T01:04:54.401Z,28.1
2023-01-30T01:11:00.529Z,28.4
2023-01-30T01:17:06.290Z,28.6
2023-01-30T01:23:12.700Z,28.1
2023-01-30T01:29:19.084Z,28
2023-01-30T01:35:24.879Z,28.1
2023-01-30T01:41:30.845Z,28.1
2023-01-30T01:47:37.042Z,28.1
2023-01-30T01:53:43.005Z,27.9
2023-01-30T01:59:48.381Z,28.1
2023-01-30T02:05:54.356Z,27.9
2023-01-30T02:12:00.131Z,27.9
2023-01-30T02:18:05.802Z,27.9
2023-01-30T02:24:11.681Z,28
2023-01-30T02:30:17.924Z,27.8
2023-01-30T02:36:24.043Z,27.8
2023-01-30T02:42:30.450Z,28
2023-01-30T02:48:36.755Z,27.7
2023-01-30T02:54:42.717Z,27.8
2023-01-30T03:00:49.482Z,27.8
2023-01-30T03:06:55.521Z,27.7
2023-01-30T03:13:01.769Z,27.7
2023-01-30T03:19:07.678Z,27.7
2023-01-30T03:25:13.630Z,27.8
2023-01-30T03:31:20.034Z,27.7
2023-01-30T03:37:26.763Z,27.6
2023-01-30T03:43:32.724Z,28
2023-01-30T03:49:38.691Z,27.9
2023-01-30T03:55:45.090Z,27.9
2023-01-30T04:01:50.873Z,27.6
2023-01-30T04:07:56.445Z,27.7
2023-01-30T04:14:02.668Z,27.6
2023-01-30T04:20:08.815Z,27.6
2023-01-30T04:26:14.806Z,27.6
2023-01-30T04:32:20.971Z,27.7
2023-01-30T04:38:27.169Z,27.6
2023-01-30T04:44:33.241Z,27.8
2023-01-30T04:50:39.723Z,27.7
2023-01-30T04:56:45.517Z,27.7
2023-01-30T05:02:51.297Z,27.7
2023-01-30T05:08:57.491Z,27.9
2023-01-30T05:15:03.451Z,27.9
2023-01-30T05:21:09.854Z,28.1
2023-01-30T05:27:16.043Z,28.5
2023-01-30T05:33:21.811Z,28.1
2023-01-30T05:39:27.843Z,28.2
2023-01-30T05:45:34.008Z,28.4
2023-01-30T05:51:40.389Z,28
2023-01-30T05:57:46.334Z,28
2023-01-30T06:03:52.557Z,27.9
2023-01-30T06:09:58.720Z,27.9
2023-01-30T06:16:04.586Z,27.8
2023-01-30T06:22:11.113Z,27.8
2023-01-30T06:28:17.242Z,28
2023-01-30T06:34:23.324Z,27.9
2023-01-30T06:40:29.657Z,28
2023-01-30T06:46:35.723Z,28
2023-01-30T06:52:41.608Z,27.9
2023-01-30T06:58:48.000Z,27.9
2023-01-30T07:04:54.198Z,27.8
2023-01-30T07:11:00.364Z,28
2023-01-30T07:17:06.773Z,27.8
2023-01-30T07:23:12.807Z,27.9
2023-01-30T07:29:18.726Z,27.8
2023-01-30T07:35:25.739Z,27.8
2023-01-30T07:41:31.733Z,27.9
2023-01-30T07:47:37.693Z,28
2023-01-30T07:53:44.094Z,28
2023-01-30T07:59:50.485Z,27.9
2023-01-30T08:05:56.853Z,28
2023-01-30T08:12:02.844Z,28.3
2023-01-30T08:18:08.645Z,27.9
2023-01-30T08:24:14.420Z,27.9
2023-01-30T08:30:22.136Z,28.4
2023-01-30T08:36:28.448Z,27.7
2023-01-30T08:42:33.719Z,28.6
2023-01-30T08:48:52.259Z,28.6
2023-01-30T08:54:58.879Z,28.4
2023-01-30T09:01:05.686Z,28.2
2023-01-30T09:07:11.763Z,28.5
2023-01-30T09:13:17.613Z,28.4
2023-01-30T09:19:23.807Z,28.1
2023-01-30T09:25:29.844Z,28.3
2023-01-30T09:31:36.634Z,28.3
2023-01-30T09:37:42.775Z,28.1
2023-01-30T09:43:48.565Z,28.1
2023-01-30T09:49:56.587Z,28.4
2023-01-30T09:56:03.179Z,28.1
2023-01-30T10:02:09.173Z,28.3
2023-01-30T10:08:15.124Z,28.2
2023-01-30T10:14:21.321Z,28
2023-01-30T10:20:28.121Z,28.5
2023-01-30T10:26:34.381Z,28.6
2023-01-30T10:32:40.483Z,28.7
2023-01-30T10:38:46.263Z,28.6
2023-01-30T10:44:52.685Z,28.6
2023-01-30T10:50:58.575Z,28.7
2023-01-30T10:57:04.494Z,28.7
2023-01-30T11:03:10.924Z,28.8
2023-01-30T11:09:16.601Z,28.9
2023-01-30T11:15:23.377Z,28.9
2023-01-30T11:21:45.975Z,28.9
2023-01-30T11:27:52.138Z,28.8
2023-01-30T11:33:58.131Z,28.9
2023-01-30T11:40:03.892Z,29.1
2023-01-30T11:46:10.116Z,29
2023-01-30T11:52:16.044Z,28.9
2023-01-30T11:58:22.250Z,29.1
2023-01-30T12:04:28.210Z,29
2023-01-30T12:10:34.224Z,29.1
2023-01-30T12:16:40.665Z,29.1
2023-01-30T12:22:46.476Z,29
2023-01-30T12:28:52.773Z,29.2
2023-01-30T12:34:58.796Z,29.2
2023-01-30T12:41:04.730Z,29.1
2023-01-30T12:47:10.392Z,29.1
2023-01-30T12:53:16.483Z,29.1
2023-01-30T12:59:22.483Z,29.2
2023-01-30T13:05:28.654Z,29.3
2023-01-30T13:11:34.851Z,29.3
2023-01-30T13:17:40.957Z,29.3
2023-01-30T13:23:47.202Z,29.3
2023-01-30T13:29:53.406Z,29.4
2023-01-30T13:35:59.794Z,29.4
2023-01-30T13:42:05.764Z,29.4
2023-01-30T13:48:12.002Z,29.5
2023-01-30T13:54:18.004Z,29.4
2023-01-30T14:00:24.429Z,29.5
2023-01-30T14:06:30.936Z,29.6
2023-01-30T14:12:37.108Z,29.7
2023-01-30T14:18:43.322Z,29.7
2023-01-30T14:24:49.498Z,29.7
2023-01-30T14:30:55.467Z,29.7
2023-01-30T14:37:01.876Z,29.8
2023-01-30T14:43:08.060Z,29.7
2023-01-30T14:49:14.030Z,29.8
2023-01-30T14:55:21.803Z,29.8
2023-01-30T15:01:27.912Z,30
2023-01-30T15:07:33.402Z,29.9
2023-01-30T15:13:39.590Z,29.9
2023-01-30T15:19:45.979Z,30
2023-01-30T15:25:52.162Z,29.9
2023-01-30T15:31:58.277Z,29.9
2023-01-30T15:38:04.786Z,30
2023-01-30T15:44:11.750Z,30
2023-01-30T15:50:18.747Z,30
2023-01-30T15:56:25.542Z,30
2023-01-30T16:02:32.243Z,30
2023-01-30T16:08:38.551Z,30.1
2023-01-30T16:14:44.732Z,30.1
2023-01-30T16:21:04.729Z,30.2
2023-01-30T16:27:10.822Z,30.2
2023-01-30T16:33:17.011Z,30.3
2023-01-30T16:39:22.980Z,30.3
2023-01-30T16:45:29.787Z,30.3
2023-01-30T16:51:35.980Z,30.3
2023-01-30T16:57:41.742Z,30.3
2023-01-30T17:03:48.018Z,30.3
2023-01-30T17:09:55.147Z,30.3
2023-01-30T17:16:01.604Z,30.3
2023-01-30T17:22:07.982Z,30.3
2023-01-30T17:28:14.143Z,30.4
2023-01-30T17:34:20.303Z,30.4
2023-01-30T17:40:26.146Z,30.5
2023-01-30T17:46:32.499Z,30.5
2023-01-30T17:52:38.464Z,30.5
2023-01-30T17:58:44.430Z,30.5
2023-01-30T18:04:50.822Z,30.5
2023-01-30T18:10:56.661Z,30.5
2023-01-30T18:17:03.025Z,30.5
2023-01-30T18:23:09.188Z,30.5
2023-01-30T18:29:15.137Z,30.5
2023-01-30T18:35:21.135Z,30.5
2023-01-30T18:41:26.701Z,30.5
2023-01-30T18:47:32.086Z,30.5
2023-01-30T18:53:38.871Z,30.5
2023-01-30T18:59:45.086Z,30.5
2023-01-30T19:05:50.821Z,30.5
2023-01-30T19:11:57.012Z,30.5
2023-01-30T19:18:03.221Z,30.5
2023-01-30T19:24:09.388Z,30.5
2023-01-30T19:30:15.785Z,30.6
2023-01-30T19:36:21.765Z,30.6
2023-01-30T19:42:27.944Z,30.5
2023-01-30T19:48:34.357Z,30.5
2023-01-30T19:54:40.331Z,30.5
2023-01-30T20:00:46.771Z,30.5
2023-01-30T20:06:53.505Z,30.6
2023-01-30T20:12:59.901Z,30.6
2023-01-30T20:19:06.126Z,30.6
2023-01-30T20:25:12.284Z,30.6
2023-01-30T20:31:18.757Z,30.6
2023-01-30T20:37:24.656Z,30.6
2023-01-30T20:43:30.629Z,30.6
2023-01-30T20:49:37.187Z,30.7
2023-01-30T20:55:43.828Z,30.7
2023-01-30T21:01:50.426Z,30.6
2023-01-30T21:07:56.251Z,30.6
2023-01-30T21:14:02.819Z,30.6
2023-01-30T21:20:09.380Z,30.7
2023-01-30T21:26:15.829Z,30.6
2023-01-30T21:32:21.779Z,30.6
2023-01-30T21:38:28.129Z,30.7
2023-01-30T21:44:34.020Z,30.7
2023-01-30T21:50:41.052Z,30.7
2023-01-30T21:56:47.535Z,30.7
2023-01-30T22:02:53.382Z,30.7
2023-01-30T22:08:59.299Z,30.8
2023-01-30T22:15:05.253Z,30.8
2023-01-30T22:21:11.883Z,30.8
2023-01-30T22:27:18.066Z,30.8
2023-01-30T22:33:24.032Z,30.9
2023-01-30T22:39:30.229Z,30.9
2023-01-30T22:45:36.216Z,30.8
2023-01-30T22:51:43.013Z,30.8
2023-01-30T22:57:48.981Z,30.8
2023-01-30T23:03:54.866Z,30.8
2023-01-30T23:10:01.219Z,30.9
2023-01-30T23:16:07.541Z,30.8
2023-01-30T23:22:13.498Z,30.9
2023-01-30T23:28:19.016Z,30.9
2023-01-30T23:34:24.868Z,30.9
2023-01-30T23:40:31.259Z,30.9
2023-01-30T23:46:37.729Z,30.9
2023-01-30T23:52:43.926Z,30.7
2023-01-30T23:58:50.020Z,30.7
